sensor_id;sensor_type;location;lat;lon;timestamp;P1;durP1;ratioP1;P2;durP2;ratioP2
53261;SDS011;39658;51.090;-1.786;2022-07-12T00:01:42;6.85;;;2.50;;
53261;SDS011;39658;51.090;-1.786;2022-07-12T00:04:09;6.30;;;2.35;;
53261;SDS011;39658;51.090;-1.786;2022-07-12T00:06:35;6.68;;;2.70;;
53261;SDS011;39658;51.090;-1.786;2022-07-12T00:09:02;8.15;;;2.40;;
53261;SDS011;39658;51.090;-1.786;2022-07-12T00:11:30;8.57;;;2.80;;
53261;SDS011;39658;51.090;-1.786;2022-07-12T00:13:57;9.00;;;2.60;;
53261;SDS011;39658;51.090;-1.786;2022-07-12T00:16:23;8.18;;;2.78;;
53261;SDS011;39658;51.090;-1.786;2022-07-12T00:18:52;6.60;;;2.40;;
53261;SDS011;39658;51.090;-1.786;2022-07-12T00:21:19;7.10;;;2.58;;
53261;SDS011;39658;51.090;-1.786;2022-07-12T00:23:46;10.38;;;2.80;;
53261;SDS011;39658;51.090;-1.786;2022-07-12T00:26:13;9.35;;;2.47;;
53261;SDS011;39658;51.090;-1.786;2022-07-12T00:28:39;11.83;;;2.70;;
53261;SDS011;39658;51.090;-1.786;2022-07-12T00:31:06;10.00;;;2.53;;
53261;SDS011;39658;51.090;-1.786;2022-07-12T00:33:33;9.38;;;2.85;;
53261;SDS011;39658;51.090;-1.786;2022-07-12T00:36:02;5.78;;;2.30;;
53261;SDS011;39658;51.090;-1.786;2022-07-12T00:38:29;8.48;;;2.58;;
53261;SDS011;39658;51.090;-1.786;2022-07-12T00:40:56;12.43;;;2.65;;
53261;SDS011;39658;51.090;-1.786;2022-07-12T00:43:23;7.95;;;2.50;;
53261;SDS011;39658;51.090;-1.786;2022-07-12T00:45:50;9.50;;;2.58;;
53261;SDS011;39658;51.090;-1.786;2022-07-12T00:48:17;8.93;;;2.63;;
53261;SDS011;39658;51.090;-1.786;2022-07-12T00:50:44;9.15;;;2.50;;
53261;SDS011;39658;51.090;-1.786;2022-07-12T00:53:13;10.10;;;2.67;;
53261;SDS011;39658;51.090;-1.786;2022-07-12T00:55:44;6.93;;;2.40;;
53261;SDS011;39658;51.090;-1.786;2022-07-12T00:58:11;7.28;;;2.83;;
53261;SDS011;39658;51.090;-1.786;2022-07-12T01:00:38;10.18;;;2.85;;
53261;SDS011;39658;51.090;-1.786;2022-07-12T01:03:05;8.20;;;2.50;;
53261;SDS011;39658;51.090;-1.786;2022-07-12T01:05:31;7.07;;;2.65;;
53261;SDS011;39658;51.090;-1.786;2022-07-12T01:07:58;10.93;;;3.05;;
53261;SDS011;39658;51.090;-1.786;2022-07-12T01:10:27;10.02;;;2.60;;
53261;SDS011;39658;51.090;-1.786;2022-07-12T01:12:56;10.00;;;3.00;;
53261;SDS011;39658;51.090;-1.786;2022-07-12T01:15:24;9.57;;;2.80;;
53261;SDS011;39658;51.090;-1.786;2022-07-12T01:17:53;6.75;;;2.42;;
53261;SDS011;39658;51.090;-1.786;2022-07-12T01:20:22;8.18;;;3.03;;
53261;SDS011;39658;51.090;-1.786;2022-07-12T01:22:52;11.43;;;3.22;;
53261;SDS011;39658;51.090;-1.786;2022-07-12T01:25:20;7.10;;;2.50;;
53261;SDS011;39658;51.090;-1.786;2022-07-12T01:27:47;7.82;;;2.58;;
53261;SDS011;39658;51.090;-1.786;2022-07-12T01:30:14;9.77;;;2.70;;
53261;SDS011;39658;51.090;-1.786;2022-07-12T01:32:41;7.13;;;2.78;;
53261;SDS011;39658;51.090;-1.786;2022-07-12T01:35:09;7.90;;;2.72;;
53261;SDS011;39658;51.090;-1.786;2022-07-12T01:37:37;7.13;;;2.60;;
53261;SDS011;39658;51.090;-1.786;2022-07-12T01:40:09;9.65;;;2.67;;
53261;SDS011;39658;51.090;-1.786;2022-07-12T01:42:37;6.20;;;2.80;;
53261;SDS011;39658;51.090;-1.786;2022-07-12T01:45:04;8.02;;;2.90;;
53261;SDS011;39658;51.090;-1.786;2022-07-12T01:47:33;9.38;;;2.65;;
53261;SDS011;39658;51.090;-1.786;2022-07-12T01:50:00;9.43;;;3.08;;
53261;SDS011;39658;51.090;-1.786;2022-07-12T01:52:28;8.50;;;2.97;;
53261;SDS011;39658;51.090;-1.786;2022-07-12T01:54:55;6.28;;;2.65;;
53261;SDS011;39658;51.090;-1.786;2022-07-12T01:57:24;6.75;;;2.70;;
53261;SDS011;39658;51.090;-1.786;2022-07-12T01:59:52;7.30;;;2.45;;
53261;SDS011;39658;51.090;-1.786;2022-07-12T02:02:19;10.57;;;2.60;;
53261;SDS011;39658;51.090;-1.786;2022-07-12T02:04:47;6.28;;;2.88;;
53261;SDS011;39658;51.090;-1.786;2022-07-12T02:07:14;6.47;;;2.70;;
53261;SDS011;39658;51.090;-1.786;2022-07-12T02:09:41;8.15;;;2.75;;
53261;SDS011;39658;51.090;-1.786;2022-07-12T02:12:08;6.10;;;2.50;;
53261;SDS011;39658;51.090;-1.786;2022-07-12T02:14:36;8.80;;;2.70;;
53261;SDS011;39658;51.090;-1.786;2022-07-12T02:17:03;7.85;;;2.65;;
53261;SDS011;39658;51.090;-1.786;2022-07-12T02:19:30;6.55;;;2.40;;
53261;SDS011;39658;51.090;-1.786;2022-07-12T02:21:57;6.78;;;2.63;;
53261;SDS011;39658;51.090;-1.786;2022-07-12T02:24:24;7.05;;;2.50;;
53261;SDS011;39658;51.090;-1.786;2022-07-12T02:26:50;7.43;;;2.72;;
53261;SDS011;39658;51.090;-1.786;2022-07-12T02:29:17;6.45;;;2.72;;
53261;SDS011;39658;51.090;-1.786;2022-07-12T02:31:45;6.70;;;2.55;;
53261;SDS011;39658;51.090;-1.786;2022-07-12T02:34:12;7.97;;;3.17;;
53261;SDS011;39658;51.090;-1.786;2022-07-12T02:36:39;7.80;;;2.55;;
53261;SDS011;39658;51.090;-1.786;2022-07-12T02:39:06;8.77;;;2.80;;
53261;SDS011;39658;51.090;-1.786;2022-07-12T02:41:33;8.18;;;2.53;;
53261;SDS011;39658;51.090;-1.786;2022-07-12T02:44:00;6.77;;;2.87;;
53261;SDS011;39658;51.090;-1.786;2022-07-12T02:46:27;7.80;;;2.80;;
53261;SDS011;39658;51.090;-1.786;2022-07-12T02:48:55;9.35;;;2.72;;
53261;SDS011;39658;51.090;-1.786;2022-07-12T02:51:22;7.63;;;2.28;;
53261;SDS011;39658;51.090;-1.786;2022-07-12T02:53:49;6.40;;;2.60;;
53261;SDS011;39658;51.090;-1.786;2022-07-12T02:56:15;6.35;;;2.40;;
53261;SDS011;39658;51.090;-1.786;2022-07-12T02:58:42;7.53;;;2.67;;
53261;SDS011;39658;51.090;-1.786;2022-07-12T03:01:09;7.13;;;2.65;;
53261;SDS011;39658;51.090;-1.786;2022-07-12T03:03:36;10.60;;;2.63;;
53261;SDS011;39658;51.090;-1.786;2022-07-12T03:06:04;7.45;;;2.80;;
53261;SDS011;39658;51.090;-1.786;2022-07-12T03:08:31;9.88;;;3.13;;
53261;SDS011;39658;51.090;-1.786;2022-07-12T03:10:58;7.72;;;2.70;;
53261;SDS011;39658;51.090;-1.786;2022-07-12T03:13:25;8.77;;;2.80;;
53261;SDS011;39658;51.090;-1.786;2022-07-12T03:15:52;7.00;;;2.90;;
53261;SDS011;39658;51.090;-1.786;2022-07-12T03:18:18;7.57;;;3.10;;
53261;SDS011;39658;51.090;-1.786;2022-07-12T03:20:45;9.82;;;3.10;;
53261;SDS011;39658;51.090;-1.786;2022-07-12T03:23:15;11.68;;;2.75;;
53261;SDS011;39658;51.090;-1.786;2022-07-12T03:25:42;10.23;;;2.95;;
53261;SDS011;39658;51.090;-1.786;2022-07-12T03:28:08;6.82;;;2.60;;
53261;SDS011;39658;51.090;-1.786;2022-07-12T03:30:36;10.70;;;2.80;;
53261;SDS011;39658;51.090;-1.786;2022-07-12T03:33:02;6.32;;;2.45;;
53261;SDS011;39658;51.090;-1.786;2022-07-12T03:35:29;10.80;;;2.60;;
53261;SDS011;39658;51.090;-1.786;2022-07-12T03:37:56;10.73;;;3.25;;
53261;SDS011;39658;51.090;-1.786;2022-07-12T03:40:24;8.30;;;3.20;;
53261;SDS011;39658;51.090;-1.786;2022-07-12T03:42:51;7.25;;;2.92;;
53261;SDS011;39658;51.090;-1.786;2022-07-12T03:45:18;9.30;;;3.13;;
53261;SDS011;39658;51.090;-1.786;2022-07-12T03:47:45;7.30;;;3.10;;
53261;SDS011;39658;51.090;-1.786;2022-07-12T03:50:13;9.95;;;3.20;;
53261;SDS011;39658;51.090;-1.786;2022-07-12T03:52:40;9.38;;;3.15;;
53261;SDS011;39658;51.090;-1.786;2022-07-12T03:55:09;6.80;;;2.85;;
53261;SDS011;39658;51.090;-1.786;2022-07-12T03:57:37;8.32;;;2.97;;
53261;SDS011;39658;51.090;-1.786;2022-07-12T04:00:05;10.63;;;2.97;;
53261;SDS011;39658;51.090;-1.786;2022-07-12T04:02:35;9.75;;;3.40;;
53261;SDS011;39658;51.090;-1.786;2022-07-12T04:05:02;14.27;;;3.42;;
53261;SDS011;39658;51.090;-1.786;2022-07-12T04:07:31;8.38;;;3.13;;
53261;SDS011;39658;51.090;-1.786;2022-07-12T04:09:58;10.38;;;2.92;;
53261;SDS011;39658;51.090;-1.786;2022-07-12T04:12:25;8.18;;;3.38;;
53261;SDS011;39658;51.090;-1.786;2022-07-12T04:14:53;10.48;;;3.70;;
53261;SDS011;39658;51.090;-1.786;2022-07-12T04:17:20;10.57;;;4.45;;
53261;SDS011;39658;51.090;-1.786;2022-07-12T04:19:46;11.85;;;4.70;;
53261;SDS011;39658;51.090;-1.786;2022-07-12T04:22:13;10.38;;;3.92;;
53261;SDS011;39658;51.090;-1.786;2022-07-12T04:24:40;14.38;;;4.70;;
53261;SDS011;39658;51.090;-1.786;2022-07-12T04:27:07;9.52;;;3.42;;
53261;SDS011;39658;51.090;-1.786;2022-07-12T04:29:33;9.98;;;3.00;;
53261;SDS011;39658;51.090;-1.786;2022-07-12T04:32:02;8.35;;;3.38;;
53261;SDS011;39658;51.090;-1.786;2022-07-12T04:34:29;11.13;;;3.17;;
53261;SDS011;39658;51.090;-1.786;2022-07-12T04:36:56;7.45;;;3.00;;
53261;SDS011;39658;51.090;-1.786;2022-07-12T04:39:22;7.03;;;3.05;;
53261;SDS011;39658;51.090;-1.786;2022-07-12T04:41:49;6.82;;;3.20;;
53261;SDS011;39658;51.090;-1.786;2022-07-12T04:44:16;10.07;;;3.42;;
53261;SDS011;39658;51.090;-1.786;2022-07-12T04:46:43;7.85;;;3.28;;
53261;SDS011;39658;51.090;-1.786;2022-07-12T04:49:11;8.85;;;3.85;;
53261;SDS011;39658;51.090;-1.786;2022-07-12T04:51:38;10.60;;;3.57;;
53261;SDS011;39658;51.090;-1.786;2022-07-12T04:54:05;14.95;;;4.10;;
53261;SDS011;39658;51.090;-1.786;2022-07-12T04:56:32;7.32;;;3.17;;
53261;SDS011;39658;51.090;-1.786;2022-07-12T04:58:59;8.23;;;3.47;;
53261;SDS011;39658;51.090;-1.786;2022-07-12T05:01:26;10.23;;;3.67;;
53261;SDS011;39658;51.090;-1.786;2022-07-12T05:03:52;10.88;;;3.20;;
53261;SDS011;39658;51.090;-1.786;2022-07-12T05:06:21;7.55;;;3.20;;
53261;SDS011;39658;51.090;-1.786;2022-07-12T05:08:48;9.90;;;3.00;;
53261;SDS011;39658;51.090;-1.786;2022-07-12T05:11:15;10.38;;;3.25;;
53261;SDS011;39658;51.090;-1.786;2022-07-12T05:13:42;12.63;;;4.03;;
53261;SDS011;39658;51.090;-1.786;2022-07-12T05:16:09;12.02;;;4.80;;
53261;SDS011;39658;51.090;-1.786;2022-07-12T05:18:36;11.77;;;4.13;;
53261;SDS011;39658;51.090;-1.786;2022-07-12T05:21:03;11.52;;;4.50;;
53261;SDS011;39658;51.090;-1.786;2022-07-12T05:23:31;10.82;;;4.47;;
53261;SDS011;39658;51.090;-1.786;2022-07-12T05:25:58;12.07;;;4.30;;
53261;SDS011;39658;51.090;-1.786;2022-07-12T05:28:25;9.07;;;3.60;;
53261;SDS011;39658;51.090;-1.786;2022-07-12T05:30:51;10.05;;;4.00;;
53261;SDS011;39658;51.090;-1.786;2022-07-12T05:33:18;9.30;;;4.30;;
53261;SDS011;39658;51.090;-1.786;2022-07-12T05:35:45;10.25;;;4.22;;
53261;SDS011;39658;51.090;-1.786;2022-07-12T05:38:12;12.80;;;5.03;;
53261;SDS011;39658;51.090;-1.786;2022-07-12T05:40:40;15.57;;;4.80;;
53261;SDS011;39658;51.090;-1.786;2022-07-12T05:43:07;14.88;;;5.20;;
53261;SDS011;39658;51.090;-1.786;2022-07-12T05:45:33;12.45;;;5.28;;
53261;SDS011;39658;51.090;-1.786;2022-07-12T05:48:00;14.82;;;4.88;;
53261;SDS011;39658;51.090;-1.786;2022-07-12T05:50:27;14.52;;;5.15;;
53261;SDS011;39658;51.090;-1.786;2022-07-12T05:52:54;16.13;;;5.22;;
53261;SDS011;39658;51.090;-1.786;2022-07-12T05:55:39;11.38;;;4.57;;
53261;SDS011;39658;51.090;-1.786;2022-07-12T05:58:06;13.18;;;5.18;;
53261;SDS011;39658;51.090;-1.786;2022-07-12T06:00:34;13.68;;;4.70;;
53261;SDS011;39658;51.090;-1.786;2022-07-12T06:03:00;12.93;;;4.15;;
53261;SDS011;39658;51.090;-1.786;2022-07-12T06:05:27;12.52;;;4.78;;
53261;SDS011;39658;51.090;-1.786;2022-07-12T06:07:54;13.45;;;4.65;;
53261;SDS011;39658;51.090;-1.786;2022-07-12T06:10:21;14.02;;;4.88;;
53261;SDS011;39658;51.090;-1.786;2022-07-12T06:12:49;15.15;;;4.82;;
53261;SDS011;39658;51.090;-1.786;2022-07-12T06:15:16;10.30;;;5.22;;
53261;SDS011;39658;51.090;-1.786;2022-07-12T06:17:43;14.40;;;5.53;;
53261;SDS011;39658;51.090;-1.786;2022-07-12T06:20:10;16.15;;;5.68;;
53261;SDS011;39658;51.090;-1.786;2022-07-12T06:22:37;15.10;;;5.80;;
53261;SDS011;39658;51.090;-1.786;2022-07-12T06:25:04;12.23;;;5.25;;
53261;SDS011;39658;51.090;-1.786;2022-07-12T06:27:32;11.85;;;5.70;;
53261;SDS011;39658;51.090;-1.786;2022-07-12T06:30:00;14.20;;;6.22;;
53261;SDS011;39658;51.090;-1.786;2022-07-12T06:32:27;16.67;;;6.40;;
53261;SDS011;39658;51.090;-1.786;2022-07-12T06:34:54;17.60;;;7.78;;
53261;SDS011;39658;51.090;-1.786;2022-07-12T06:37:22;15.88;;;7.80;;
53261;SDS011;39658;51.090;-1.786;2022-07-12T06:39:48;17.90;;;8.13;;
53261;SDS011;39658;51.090;-1.786;2022-07-12T06:42:15;13.43;;;8.52;;
53261;SDS011;39658;51.090;-1.786;2022-07-12T06:44:42;17.05;;;9.70;;
53261;SDS011;39658;51.090;-1.786;2022-07-12T06:47:10;21.17;;;10.35;;
53261;SDS011;39658;51.090;-1.786;2022-07-12T06:49:37;19.90;;;11.15;;
53261;SDS011;39658;51.090;-1.786;2022-07-12T06:52:05;25.55;;;11.38;;
53261;SDS011;39658;51.090;-1.786;2022-07-12T06:54:32;27.45;;;12.18;;
53261;SDS011;39658;51.090;-1.786;2022-07-12T06:56:59;22.83;;;13.70;;
53261;SDS011;39658;51.090;-1.786;2022-07-12T06:59:26;20.98;;;14.05;;
53261;SDS011;39658;51.090;-1.786;2022-07-12T07:01:52;19.47;;;13.37;;
53261;SDS011;39658;51.090;-1.786;2022-07-12T07:04:22;18.67;;;11.93;;
53261;SDS011;39658;51.090;-1.786;2022-07-12T07:06:49;20.83;;;10.93;;
53261;SDS011;39658;51.090;-1.786;2022-07-12T07:09:16;19.33;;;10.02;;
53261;SDS011;39658;51.090;-1.786;2022-07-12T07:11:43;18.08;;;7.45;;
53261;SDS011;39658;51.090;-1.786;2022-07-12T07:14:10;19.50;;;7.55;;
53261;SDS011;39658;51.090;-1.786;2022-07-12T07:16:37;14.90;;;8.00;;
53261;SDS011;39658;51.090;-1.786;2022-07-12T07:19:04;17.23;;;8.77;;
53261;SDS011;39658;51.090;-1.786;2022-07-12T07:21:32;17.23;;;9.27;;
53261;SDS011;39658;51.090;-1.786;2022-07-12T07:23:59;17.48;;;8.43;;
53261;SDS011;39658;51.090;-1.786;2022-07-12T07:26:26;13.90;;;8.15;;
53261;SDS011;39658;51.090;-1.786;2022-07-12T07:28:53;14.55;;;8.25;;
53261;SDS011;39658;51.090;-1.786;2022-07-12T07:31:37;12.20;;;6.38;;
53261;SDS011;39658;51.090;-1.786;2022-07-12T07:34:05;14.05;;;6.82;;
53261;SDS011;39658;51.090;-1.786;2022-07-12T07:36:33;14.65;;;6.65;;
53261;SDS011;39658;51.090;-1.786;2022-07-12T07:39:00;13.85;;;6.43;;
53261;SDS011;39658;51.090;-1.786;2022-07-12T07:41:27;10.15;;;5.72;;
53261;SDS011;39658;51.090;-1.786;2022-07-12T07:43:54;11.30;;;5.53;;
53261;SDS011;39658;51.090;-1.786;2022-07-12T07:46:21;10.25;;;5.30;;
53261;SDS011;39658;51.090;-1.786;2022-07-12T07:48:48;11.82;;;5.70;;
53261;SDS011;39658;51.090;-1.786;2022-07-12T07:51:14;13.07;;;4.93;;
53261;SDS011;39658;51.090;-1.786;2022-07-12T07:53:43;12.68;;;5.38;;
53261;SDS011;39658;51.090;-1.786;2022-07-12T07:56:09;11.50;;;5.10;;
53261;SDS011;39658;51.090;-1.786;2022-07-12T07:58:36;12.18;;;5.20;;
53261;SDS011;39658;51.090;-1.786;2022-07-12T08:01:03;14.20;;;5.10;;
53261;SDS011;39658;51.090;-1.786;2022-07-12T08:03:30;10.55;;;5.60;;
53261;SDS011;39658;51.090;-1.786;2022-07-12T08:05:57;14.52;;;4.95;;
53261;SDS011;39658;51.090;-1.786;2022-07-12T08:08:25;11.88;;;5.45;;
53261;SDS011;39658;51.090;-1.786;2022-07-12T08:10:55;14.10;;;5.03;;
53261;SDS011;39658;51.090;-1.786;2022-07-12T08:13:22;14.40;;;5.13;;
53261;SDS011;39658;51.090;-1.786;2022-07-12T08:15:49;9.02;;;4.40;;
53261;SDS011;39658;51.090;-1.786;2022-07-12T08:18:16;9.43;;;4.60;;
53261;SDS011;39658;51.090;-1.786;2022-07-12T08:20:43;12.15;;;5.20;;
53261;SDS011;39658;51.090;-1.786;2022-07-12T08:23:10;10.07;;;5.00;;
53261;SDS011;39658;51.090;-1.786;2022-07-12T08:25:38;11.65;;;4.72;;
53261;SDS011;39658;51.090;-1.786;2022-07-12T08:28:06;9.57;;;4.70;;
53261;SDS011;39658;51.090;-1.786;2022-07-12T08:30:33;16.48;;;4.38;;
53261;SDS011;39658;51.090;-1.786;2022-07-12T08:33:00;10.05;;;4.25;;
53261;SDS011;39658;51.090;-1.786;2022-07-12T08:35:27;16.85;;;4.10;;
53261;SDS011;39658;51.090;-1.786;2022-07-12T08:37:53;8.77;;;3.30;;
53261;SDS011;39658;51.090;-1.786;2022-07-12T08:40:20;11.30;;;4.07;;
53261;SDS011;39658;51.090;-1.786;2022-07-12T08:42:47;11.00;;;3.72;;
53261;SDS011;39658;51.090;-1.786;2022-07-12T08:45:15;10.75;;;3.30;;
53261;SDS011;39658;51.090;-1.786;2022-07-12T08:47:42;7.15;;;3.20;;
53261;SDS011;39658;51.090;-1.786;2022-07-12T08:50:10;12.02;;;3.33;;
53261;SDS011;39658;51.090;-1.786;2022-07-12T08:52:39;9.20;;;3.22;;
53261;SDS011;39658;51.090;-1.786;2022-07-12T08:55:21;16.13;;;3.60;;
53261;SDS011;39658;51.090;-1.786;2022-07-12T08:57:50;8.50;;;3.15;;
53261;SDS011;39658;51.090;-1.786;2022-07-12T09:00:21;7.85;;;2.72;;
53261;SDS011;39658;51.090;-1.786;2022-07-12T09:02:50;13.20;;;2.50;;
53261;SDS011;39658;51.090;-1.786;2022-07-12T09:05:18;11.93;;;2.83;;
53261;SDS011;39658;51.090;-1.786;2022-07-12T09:07:46;6.70;;;2.97;;
53261;SDS011;39658;51.090;-1.786;2022-07-12T09:10:13;10.75;;;2.70;;
53261;SDS011;39658;51.090;-1.786;2022-07-12T09:12:41;6.63;;;2.65;;
53261;SDS011;39658;51.090;-1.786;2022-07-12T09:15:13;10.27;;;2.20;;
53261;SDS011;39658;51.090;-1.786;2022-07-12T09:20:20;7.90;;;2.55;;
53261;SDS011;39658;51.090;-1.786;2022-07-12T09:22:56;6.35;;;2.47;;
53261;SDS011;39658;51.090;-1.786;2022-07-12T09:25:24;9.35;;;2.95;;
53261;SDS011;39658;51.090;-1.786;2022-07-12T09:27:52;8.13;;;2.70;;
53261;SDS011;39658;51.090;-1.786;2022-07-12T09:30:21;8.70;;;2.10;;
53261;SDS011;39658;51.090;-1.786;2022-07-12T09:32:50;6.95;;;2.22;;
53261;SDS011;39658;51.090;-1.786;2022-07-12T09:35:36;7.93;;;2.13;;
53261;SDS011;39658;51.090;-1.786;2022-07-12T09:38:20;6.63;;;2.20;;
53261;SDS011;39658;51.090;-1.786;2022-07-12T09:40:47;9.88;;;2.80;;
53261;SDS011;39658;51.090;-1.786;2022-07-12T09:43:16;7.15;;;2.20;;
53261;SDS011;39658;51.090;-1.786;2022-07-12T09:45:43;7.75;;;2.53;;
53261;SDS011;39658;51.090;-1.786;2022-07-12T09:48:13;13.35;;;2.63;;
53261;SDS011;39658;51.090;-1.786;2022-07-12T09:50:41;6.05;;;2.20;;
53261;SDS011;39658;51.090;-1.786;2022-07-12T09:53:13;8.73;;;2.60;;
53261;SDS011;39658;51.090;-1.786;2022-07-12T09:55:51;10.57;;;2.42;;
53261;SDS011;39658;51.090;-1.786;2022-07-12T09:58:26;5.88;;;2.13;;
53261;SDS011;39658;51.090;-1.786;2022-07-12T10:00:58;5.60;;;1.70;;
53261;SDS011;39658;51.090;-1.786;2022-07-12T10:03:28;5.30;;;1.90;;
53261;SDS011;39658;51.090;-1.786;2022-07-12T10:05:59;11.00;;;2.03;;
53261;SDS011;39658;51.090;-1.786;2022-07-12T10:08:28;6.15;;;1.70;;
53261;SDS011;39658;51.090;-1.786;2022-07-12T10:10:56;4.67;;;1.97;;
53261;SDS011;39658;51.090;-1.786;2022-07-12T10:13:23;4.97;;;1.92;;
53261;SDS011;39658;51.090;-1.786;2022-07-12T10:15:52;9.50;;;2.20;;
53261;SDS011;39658;51.090;-1.786;2022-07-12T10:18:26;5.47;;;1.73;;
53261;SDS011;39658;51.090;-1.786;2022-07-12T10:20:55;8.30;;;2.00;;
53261;SDS011;39658;51.090;-1.786;2022-07-12T10:23:32;6.72;;;1.73;;
53261;SDS011;39658;51.090;-1.786;2022-07-12T10:28:55;8.48;;;1.77;;
53261;SDS011;39658;51.090;-1.786;2022-07-12T10:31:27;4.53;;;1.75;;
53261;SDS011;39658;51.090;-1.786;2022-07-12T10:34:14;5.07;;;2.03;;
53261;SDS011;39658;51.090;-1.786;2022-07-12T10:37:07;15.07;;;1.73;;
53261;SDS011;39658;51.090;-1.786;2022-07-12T10:39:35;5.40;;;1.55;;
53261;SDS011;39658;51.090;-1.786;2022-07-12T10:42:12;9.45;;;1.90;;
53261;SDS011;39658;51.090;-1.786;2022-07-12T10:44:40;4.30;;;1.38;;
53261;SDS011;39658;51.090;-1.786;2022-07-12T10:47:10;5.40;;;1.60;;
53261;SDS011;39658;51.090;-1.786;2022-07-12T10:49:45;4.25;;;1.60;;
53261;SDS011;39658;51.090;-1.786;2022-07-12T10:52:14;6.40;;;1.58;;
53261;SDS011;39658;51.090;-1.786;2022-07-12T10:57:44;5.07;;;1.70;;
53261;SDS011;39658;51.090;-1.786;2022-07-12T11:00:16;8.98;;;1.80;;
53261;SDS011;39658;51.090;-1.786;2022-07-12T11:02:44;3.20;;;1.40;;
53261;SDS011;39658;51.090;-1.786;2022-07-12T11:05:13;6.47;;;1.52;;
53261;SDS011;39658;51.090;-1.786;2022-07-12T11:07:40;4.38;;;1.70;;
53261;SDS011;39658;51.090;-1.786;2022-07-12T11:10:11;5.78;;;1.90;;
53261;SDS011;39658;51.090;-1.786;2022-07-12T11:12:38;9.73;;;2.05;;
53261;SDS011;39658;51.090;-1.786;2022-07-12T11:15:05;5.75;;;1.50;;
53261;SDS011;39658;51.090;-1.786;2022-07-12T11:17:33;5.15;;;1.80;;
53261;SDS011;39658;51.090;-1.786;2022-07-12T11:20:10;8.27;;;1.67;;
53261;SDS011;39658;51.090;-1.786;2022-07-12T11:22:40;6.20;;;1.80;;
53261;SDS011;39658;51.090;-1.786;2022-07-12T11:25:09;6.00;;;1.90;;
53261;SDS011;39658;51.090;-1.786;2022-07-12T11:27:37;5.28;;;1.50;;
53261;SDS011;39658;51.090;-1.786;2022-07-12T11:30:05;19.75;;;1.80;;
53261;SDS011;39658;51.090;-1.786;2022-07-12T11:32:34;9.07;;;1.83;;
53261;SDS011;39658;51.090;-1.786;2022-07-12T11:35:01;6.50;;;1.85;;
53261;SDS011;39658;51.090;-1.786;2022-07-12T11:37:30;7.70;;;1.58;;
53261;SDS011;39658;51.090;-1.786;2022-07-12T11:39:57;8.20;;;1.80;;
53261;SDS011;39658;51.090;-1.786;2022-07-12T11:42:24;6.25;;;1.70;;
53261;SDS011;39658;51.090;-1.786;2022-07-12T11:44:51;4.85;;;1.60;;
53261;SDS011;39658;51.090;-1.786;2022-07-12T11:47:18;9.05;;;1.50;;
53261;SDS011;39658;51.090;-1.786;2022-07-12T11:49:48;7.72;;;1.60;;
53261;SDS011;39658;51.090;-1.786;2022-07-12T11:52:16;8.43;;;1.77;;
53261;SDS011;39658;51.090;-1.786;2022-07-12T11:54:45;4.75;;;1.55;;
53261;SDS011;39658;51.090;-1.786;2022-07-12T11:57:13;10.48;;;1.60;;
53261;SDS011;39658;51.090;-1.786;2022-07-12T11:59:41;7.82;;;1.60;;
53261;SDS011;39658;51.090;-1.786;2022-07-12T12:02:08;7.22;;;1.33;;
53261;SDS011;39658;51.090;-1.786;2022-07-12T12:04:44;6.28;;;1.90;;
53261;SDS011;39658;51.090;-1.786;2022-07-12T12:07:15;5.50;;;1.58;;
53261;SDS011;39658;51.090;-1.786;2022-07-12T12:09:59;8.65;;;2.00;;
53261;SDS011;39658;51.090;-1.786;2022-07-12T12:12:27;6.70;;;1.85;;
53261;SDS011;39658;51.090;-1.786;2022-07-12T12:14:54;8.05;;;1.65;;
53261;SDS011;39658;51.090;-1.786;2022-07-12T12:17:21;5.15;;;1.60;;
53261;SDS011;39658;51.090;-1.786;2022-07-12T12:19:49;10.88;;;1.88;;
53261;SDS011;39658;51.090;-1.786;2022-07-12T12:22:28;10.63;;;1.80;;
53261;SDS011;39658;51.090;-1.786;2022-07-12T12:25:00;8.05;;;1.88;;
53261;SDS011;39658;51.090;-1.786;2022-07-12T12:27:27;6.80;;;1.83;;
53261;SDS011;39658;51.090;-1.786;2022-07-12T12:29:57;8.52;;;1.75;;
53261;SDS011;39658;51.090;-1.786;2022-07-12T12:32:24;7.20;;;1.50;;
53261;SDS011;39658;51.090;-1.786;2022-07-12T12:35:07;7.88;;;1.70;;
53261;SDS011;39658;51.090;-1.786;2022-07-12T12:37:35;7.35;;;1.40;;
53261;SDS011;39658;51.090;-1.786;2022-07-12T12:40:03;6.25;;;1.85;;
53261;SDS011;39658;51.090;-1.786;2022-07-12T12:42:31;7.53;;;1.80;;
53261;SDS011;39658;51.090;-1.786;2022-07-12T12:44:58;8.30;;;2.22;;
53261;SDS011;39658;51.090;-1.786;2022-07-12T12:47:25;9.52;;;1.90;;
53261;SDS011;39658;51.090;-1.786;2022-07-12T12:49:59;10.75;;;1.90;;
53261;SDS011;39658;51.090;-1.786;2022-07-12T12:52:27;6.15;;;1.98;;
53261;SDS011;39658;51.090;-1.786;2022-07-12T12:54:55;9.40;;;2.20;;
53261;SDS011;39658;51.090;-1.786;2022-07-12T12:57:24;8.10;;;1.83;;
53261;SDS011;39658;51.090;-1.786;2022-07-12T12:59:51;6.18;;;1.73;;
53261;SDS011;39658;51.090;-1.786;2022-07-12T13:02:18;6.85;;;2.05;;
53261;SDS011;39658;51.090;-1.786;2022-07-12T13:04:49;5.10;;;1.80;;
53261;SDS011;39658;51.090;-1.786;2022-07-12T13:07:16;9.30;;;1.80;;
53261;SDS011;39658;51.090;-1.786;2022-07-12T13:09:43;6.70;;;1.67;;
53261;SDS011;39658;51.090;-1.786;2022-07-12T13:12:10;6.43;;;1.70;;
53261;SDS011;39658;51.090;-1.786;2022-07-12T13:14:38;7.55;;;1.77;;
53261;SDS011;39658;51.090;-1.786;2022-07-12T13:17:05;7.55;;;2.33;;
53261;SDS011;39658;51.090;-1.786;2022-07-12T13:19:32;10.15;;;1.90;;
53261;SDS011;39658;51.090;-1.786;2022-07-12T13:21:59;7.18;;;2.10;;
53261;SDS011;39658;51.090;-1.786;2022-07-12T13:24:25;5.82;;;1.90;;
53261;SDS011;39658;51.090;-1.786;2022-07-12T13:26:52;7.25;;;2.00;;
53261;SDS011;39658;51.090;-1.786;2022-07-12T13:29:19;7.57;;;2.00;;
53261;SDS011;39658;51.090;-1.786;2022-07-12T13:31:48;7.40;;;2.20;;
53261;SDS011;39658;51.090;-1.786;2022-07-12T13:34:14;10.93;;;2.22;;
53261;SDS011;39658;51.090;-1.786;2022-07-12T13:36:41;6.82;;;1.65;;
53261;SDS011;39658;51.090;-1.786;2022-07-12T13:39:08;12.30;;;2.10;;
53261;SDS011;39658;51.090;-1.786;2022-07-12T13:41:52;8.80;;;1.87;;
53261;SDS011;39658;51.090;-1.786;2022-07-12T13:44:19;6.17;;;1.83;;
53261;SDS011;39658;51.090;-1.786;2022-07-12T13:46:47;9.65;;;1.77;;
53261;SDS011;39658;51.090;-1.786;2022-07-12T13:49:15;11.82;;;1.80;;
53261;SDS011;39658;51.090;-1.786;2022-07-12T13:51:42;7.90;;;1.80;;
53261;SDS011;39658;51.090;-1.786;2022-07-12T13:54:08;4.47;;;1.55;;
53261;SDS011;39658;51.090;-1.786;2022-07-12T13:56:35;8.63;;;2.00;;
53261;SDS011;39658;51.090;-1.786;2022-07-12T13:59:02;6.45;;;1.70;;
53261;SDS011;39658;51.090;-1.786;2022-07-12T14:01:29;7.53;;;1.90;;
53261;SDS011;39658;51.090;-1.786;2022-07-12T14:03:57;15.93;;;1.90;;
53261;SDS011;39658;51.090;-1.786;2022-07-12T14:06:24;9.00;;;1.70;;
53261;SDS011;39658;51.090;-1.786;2022-07-12T14:08:51;6.90;;;1.98;;
53261;SDS011;39658;51.090;-1.786;2022-07-12T14:11:18;6.47;;;1.67;;
53261;SDS011;39658;51.090;-1.786;2022-07-12T14:13:45;6.78;;;1.90;;
53261;SDS011;39658;51.090;-1.786;2022-07-12T14:16:12;10.85;;;1.90;;
53261;SDS011;39658;51.090;-1.786;2022-07-12T14:18:39;5.70;;;1.63;;
53261;SDS011;39658;51.090;-1.786;2022-07-12T14:21:07;14.65;;;2.30;;
53261;SDS011;39658;51.090;-1.786;2022-07-12T14:23:34;7.40;;;2.20;;
53261;SDS011;39658;51.090;-1.786;2022-07-12T14:26:01;7.43;;;1.80;;
53261;SDS011;39658;51.090;-1.786;2022-07-12T14:28:28;7.28;;;1.75;;
53261;SDS011;39658;51.090;-1.786;2022-07-12T14:30:55;6.90;;;1.67;;
53261;SDS011;39658;51.090;-1.786;2022-07-12T14:33:22;5.30;;;1.40;;
53261;SDS011;39658;51.090;-1.786;2022-07-12T14:35:49;4.95;;;1.65;;
53261;SDS011;39658;51.090;-1.786;2022-07-12T14:38:17;5.80;;;1.75;;
53261;SDS011;39658;51.090;-1.786;2022-07-12T14:40:44;9.63;;;2.22;;
53261;SDS011;39658;51.090;-1.786;2022-07-12T14:43:11;9.50;;;1.80;;